الصفحة الرئيسية
METAR-TAF:

METAR-TAF

مطار :

Ponta Delgada, الأزور, البرتغال

دائرة عرض: 37-44N, خط طول: 025-42W, ارتفاع: 71 متر

مراقبة الطقس الحالي

تاريخ ووقت الإصدار 16 دقيقة قبل الساعة 03:30UTC
ريح 5 عقدة من الشمال/الشمال الغربي, الاتجاه يتراوح بين الغرب/الجنوب الغربي و الشمال
درجة الحرارة 14°درجة مئوية
الرطوبة 77%
ضغط 1032 hPa
الرؤية 10 كم أو أكثر
غيوم قليلة على ارتفاع 1800 قدم
غيوم مفككة على ارتفاع 3000 قدم

METAR: LPPD 190330Z 33005KT 250V360 9999 FEW018 BKN030 14/10 Q1032

زمن: 02:46 (03:46 UTC)

توقعات

تاريخ ووقت الإصدار 4ساعات و 46 دقيقة قبل الساعة 23:00UTC
التوقعات صالحة من19 الساعة 00 UTC إلى 19 الساعة 24 UTC
ريح 5 عقدةمن اتجاهات متغيرة
الرؤية 10 كم أو أكثر
غيوم قليلة على ارتفاع 1800 قدم
غيوم مفككة على ارتفاع 3000 قدم
مؤقت
من 19 الساعة 00 UTC إلى 19 الساعة 24 UTC
غيوم متفرقة على ارتفاع 1500 قدم
أصبح
من 19 الساعة 16 UTC إلى 19 الساعة 18 UTC
ريح 7 عقدة من الجنوب/الجنوب الغربي

TAF: LPPD 182300Z 1900/1924 VRB05KT 9999 FEW018 BKN030 TEMPO 1900/1924 SCT015 BECMG 1916/1918 20007KT

أرصاد الطقس والتوقعات من أكثر من 4000 مطار (تقارير الطقس للمطار METAR والتنبؤ بالطقس بالمطارTAF).

المحطات المتاحة هي النقط الصفراء والحمراء على الخريطة.

حرك المؤشر فوق النقطة لمعرفة اسم المحطة.

ثم انقر لمعرفة أرصاد وتوقعات الطقس.

لتغيير الخارطة: اضغط على الأزرار الخضراء مع رمز الصليب الأسود للتكبير. على الزر الأخضر مع شرطة للتصغير، أو على الأسهم الخضراء للخرائط المجاورة.


METAR-TAF: